Glasgow, MT

12:24 AM MST on December 25, 2014 (GMT -0700)
APRSWXNET Glasgow MT US | Change Station
CLOSE
Current Station
Personal Weather Station
Location: Glasgow, MT
Elevation: 2211 ft
Nearby Weather Stations

Elev 2211 ft 48.19 °N, 106.61 °W | Updated 20 minutes ago

Partly Cloudy
Partly Cloudy
26 °F
Feels Like 18 °F
N
7
Wind Variable Wind from WNW
Gusts 12.0 mph

Today
High -- | Low -- °F
--% Chance of Precip.
Yesterday
High -- | Low -- °F
Precip. -- in
7:55 AM 4:16 PM
Waxing Crescent, 14% visible
Pressure 29.61 in
Visibility 10.0 miles
Clouds Mostly Cloudy 2200 ft
Windchill 18 °F
Dew Point 21 °F
Humidity 81%
Rainfall 0.02 in
Snow Depth Not available.
UV 0 out of 12
Pollen .10 out of 12
Air Quality Not available.
Flu Activity Not available.
SPECI KGGW 250721Z AUTO 33009KT 10SM BKN022 M03/M06 A2961 RMK AO2 T10331061

More Conditions Fewer Conditions

Pressure 29.61 in
Visibility 10.0 miles
Clouds Mostly Cloudy 2200 ft
Windchill 18 °F
Dew Point 21 °F
Humidity 81%
Rainfall 0.02 in
Snow Depth Not available.
UV 0 out of 12
Pollen .10 out of 12
Air Quality Not available.
Flu Activity Not available.
SPECI KGGW 250721Z AUTO 33009KT 10SM BKN022 M03/M06 A2961 RMK AO2 T10331061

More Conditions Fewer Conditions

10-Day Weather Forecast

Almanac

Astronomy

Dec. 25, 2014 Rise Set
Actual Time
Civil Twilight
Nautical Twilight
Astronomical Twilight
Moon
Length of Visible Light
Length of Day
Tomorrow will be .
, % of the Moon is Illuminated

Today's Extremes

State Highs State Lows

Community

WunderPhotos

Upload Photos

1,780,250 photos uploaded!

WunderBlogs® & News

Nearby

Air Quality

  Air Quality AQ Index Pollutant
Not available.

Snow Depth

Station Depth Elevation

Earthquake Activity

City Distance Mag. Time & Date
Minimum magnitude displayed is 2.5.

Coastal Water Temperatures

Place Temperature

Nearby Weather Stations